createdAt,value
2018-06-16T00:03:28.202Z,15.60
2018-06-16T00:13:16.801Z,15.50
2018-06-16T00:18:11.248Z,15.40
2018-06-16T00:23:05.749Z,15.30
2018-06-16T00:28:00.152Z,15.30
2018-06-16T00:32:54.702Z,15.20
2018-06-16T00:37:49.143Z,15.10
2018-06-16T00:42:44.220Z,15.00
2018-06-16T00:47:38.958Z,15.00
2018-06-16T00:52:33.384Z,14.90
2018-06-16T00:57:45.052Z,14.90
2018-06-16T01:02:39.761Z,14.90
2018-06-16T01:07:34.168Z,14.80
2018-06-16T01:12:28.660Z,14.60
2018-06-16T01:17:23.093Z,14.50
2018-06-16T01:22:17.566Z,14.50
2018-06-16T01:27:12.012Z,14.40
2018-06-16T01:32:06.996Z,14.40
2018-06-16T01:37:01.473Z,14.60
2018-06-16T01:41:55.903Z,14.50
2018-06-16T01:46:50.436Z,14.40
2018-06-16T01:51:44.961Z,14.30
2018-06-16T01:56:39.417Z,14.30
2018-06-16T02:01:33.865Z,14.20
2018-06-16T02:06:28.290Z,14.20
2018-06-16T02:11:22.704Z,14.30
2018-06-16T02:16:17.138Z,14.40
2018-06-16T02:21:11.581Z,14.30
2018-06-16T02:26:06.225Z,14.20
2018-06-16T02:31:00.652Z,14.10
2018-06-16T02:35:56.621Z,14.00
2018-06-16T02:40:51.025Z,14.00
2018-06-16T02:50:39.665Z,13.80
2018-06-16T02:55:34.115Z,13.80
2018-06-16T03:00:28.581Z,13.80
2018-06-16T03:05:23.024Z,13.70
2018-06-16T03:10:17.527Z,13.80
2018-06-16T03:15:11.976Z,13.70
2018-06-16T03:20:07.141Z,13.70
2018-06-16T03:25:01.613Z,13.60
2018-06-16T03:29:56.110Z,13.60
2018-06-16T03:34:50.557Z,13.70
2018-06-16T03:39:45.029Z,13.50
2018-06-16T03:44:39.480Z,13.50
2018-06-16T03:49:33.916Z,13.60
2018-06-16T03:54:28.341Z,13.70
2018-06-16T03:59:22.769Z,14.10
2018-06-16T04:04:17.473Z,15.10
2018-06-16T04:09:12.214Z,16.10
2018-06-16T04:14:06.820Z,17.10
2018-06-16T04:19:01.270Z,18.30
2018-06-16T04:23:55.783Z,19.10
2018-06-16T04:28:50.261Z,20.00
2018-06-16T04:33:44.725Z,21.00
2018-06-16T04:38:39.201Z,21.90
2018-06-16T04:43:33.677Z,22.60
2018-06-16T04:48:28.172Z,23.20
2018-06-16T04:53:22.611Z,24.00
2018-06-16T04:58:17.025Z,24.30
2018-06-16T05:03:11.479Z,24.20
2018-06-16T05:08:06.029Z,25.10
2018-06-16T05:13:00.526Z,25.70
2018-06-16T05:17:54.967Z,26.00
2018-06-16T05:22:49.408Z,26.50
2018-06-16T05:27:43.826Z,27.20
2018-06-16T05:32:38.396Z,27.70
2018-06-16T05:37:32.864Z,27.50
2018-06-16T05:42:27.380Z,26.80
2018-06-16T05:47:22.001Z,26.70
2018-06-16T05:52:17.186Z,28.50
2018-06-16T05:57:11.706Z,28.60
2018-06-16T06:02:06.204Z,28.20
2018-06-16T06:07:00.655Z,26.00
2018-06-16T06:11:55.116Z,26.90
2018-06-16T06:16:49.586Z,27.20
2018-06-16T06:21:43.992Z,27.50
2018-06-16T06:26:38.392Z,26.50
2018-06-16T06:36:26.951Z,25.10
2018-06-16T06:41:21.426Z,23.90
2018-06-16T06:46:15.881Z,23.80
2018-06-16T06:51:10.444Z,23.60
2018-06-16T06:56:04.961Z,23.20
2018-06-16T07:00:59.461Z,23.20
2018-06-16T07:05:53.873Z,23.70
2018-06-16T07:10:48.374Z,24.30
2018-06-16T07:15:42.825Z,24.40
2018-06-16T07:20:37.361Z,23.40
2018-06-16T07:25:31.778Z,23.80
2018-06-16T07:30:26.817Z,23.40
2018-06-16T07:35:21.270Z,22.80
2018-06-16T07:40:15.681Z,22.90
2018-06-16T07:50:04.416Z,22.50
2018-06-16T07:55:00.517Z,23.00
2018-06-16T08:04:49.056Z,23.70
2018-06-16T08:14:44.047Z,23.80
2018-06-16T08:19:38.477Z,23.80
2018-06-16T08:24:32.933Z,24.20
2018-06-16T08:29:27.396Z,24.20
2018-06-16T08:34:21.836Z,24.20
2018-06-16T08:39:16.248Z,24.80
2018-06-16T08:44:10.779Z,24.80
2018-06-16T08:49:05.421Z,25.00
2018-06-16T08:53:59.884Z,24.90
2018-06-16T08:58:54.388Z,24.80
2018-06-16T09:03:49.804Z,23.30
2018-06-16T09:08:44.281Z,23.40
2018-06-16T09:13:38.930Z,23.60
2018-06-16T09:18:33.446Z,23.30
2018-06-16T09:23:28.045Z,23.40
2018-06-16T09:28:22.596Z,23.90
2018-06-16T09:33:17.233Z,23.60
2018-06-16T09:38:11.725Z,23.50
2018-06-16T09:43:06.237Z,23.30
2018-06-16T09:48:00.650Z,23.30
2018-06-16T09:52:55.206Z,23.70
2018-06-16T09:57:49.661Z,24.20
2018-06-16T10:02:44.602Z,24.30
2018-06-16T10:07:39.100Z,24.60
2018-06-16T10:12:33.532Z,24.80
2018-06-16T10:17:28.113Z,24.90
2018-06-16T10:22:22.609Z,25.10
2018-06-16T10:27:17.097Z,25.40
2018-06-16T10:32:11.608Z,25.30
2018-06-16T10:37:06.209Z,25.70
2018-06-16T10:42:00.632Z,26.10
2018-06-16T10:46:55.133Z,26.20
2018-06-16T10:51:49.569Z,26.30
2018-06-16T10:56:44.132Z,26.40
2018-06-16T11:02:41.149Z,26.10
2018-06-16T11:07:35.646Z,26.00
2018-06-16T11:12:30.130Z,26.30
2018-06-16T11:17:24.534Z,26.40
2018-06-16T11:22:19.017Z,26.90
2018-06-16T11:27:13.521Z,27.30
2018-06-16T11:32:08.001Z,27.20
2018-06-16T11:41:56.590Z,27.20
2018-06-16T11:51:45.220Z,26.30
2018-06-16T11:56:39.697Z,26.70
2018-06-16T12:01:34.250Z,25.80
2018-06-16T12:06:28.693Z,26.30
2018-06-16T12:11:23.529Z,26.50
2018-06-16T12:16:17.932Z,26.40
2018-06-16T12:21:12.372Z,26.70
2018-06-16T12:26:06.812Z,27.10
2018-06-16T12:31:01.232Z,26.90
2018-06-16T12:35:55.650Z,26.00
2018-06-16T12:40:50.188Z,26.50
2018-06-16T12:45:44.672Z,27.00
2018-06-16T12:50:39.192Z,27.50
2018-06-16T12:55:33.601Z,27.30
2018-06-16T13:00:28.075Z,27.80
2018-06-16T13:05:22.564Z,26.80
2018-06-16T13:10:17.125Z,26.30
2018-06-16T13:20:05.726Z,26.90
2018-06-16T13:25:00.133Z,27.10
2018-06-16T13:29:54.741Z,27.60
2018-06-16T13:34:49.140Z,27.60
2018-06-16T13:39:43.711Z,27.90
2018-06-16T13:44:38.174Z,28.20
2018-06-16T13:49:32.768Z,27.90
2018-06-16T13:54:27.184Z,27.60
2018-06-16T13:59:21.624Z,27.70
2018-06-16T14:04:16.057Z,26.70
2018-06-16T14:09:11.249Z,26.40
2018-06-16T14:14:05.792Z,26.50
2018-06-16T14:19:00.301Z,26.60
2018-06-16T14:23:55.540Z,27.10
2018-06-16T14:28:50.098Z,27.60
2018-06-16T14:33:44.724Z,28.00
2018-06-16T14:38:39.164Z,28.00
2018-06-16T14:43:33.722Z,28.40
2018-06-16T14:53:22.331Z,28.20
2018-06-16T14:58:16.776Z,28.00
2018-06-16T15:03:11.287Z,28.10
2018-06-16T15:08:05.804Z,28.30
2018-06-16T15:13:00.214Z,28.60
2018-06-16T15:17:54.728Z,28.30
2018-06-16T15:22:49.148Z,28.60
2018-06-16T15:27:43.620Z,28.60
2018-06-16T15:32:38.074Z,28.20
2018-06-16T15:37:32.480Z,28.00
2018-06-16T15:42:26.945Z,27.90
2018-06-16T15:47:21.373Z,27.60
2018-06-16T15:52:15.788Z,27.90
2018-06-16T16:02:04.354Z,28.10
2018-06-16T16:06:58.902Z,27.80
2018-06-16T16:11:53.475Z,27.60
2018-06-16T16:16:47.925Z,27.60
2018-06-16T16:21:42.429Z,27.70
2018-06-16T16:26:36.902Z,27.80
2018-06-16T16:31:31.381Z,27.20
2018-06-16T16:36:25.904Z,27.50
2018-06-16T16:41:20.339Z,27.80
2018-06-16T16:46:14.919Z,27.90
2018-06-16T16:51:09.375Z,27.90
2018-06-16T16:56:03.852Z,27.70
2018-06-16T17:05:52.453Z,27.70
2018-06-16T17:10:46.972Z,27.50
2018-06-16T17:15:41.436Z,27.40
2018-06-16T17:20:35.897Z,27.00
2018-06-16T17:25:30.288Z,27.20
2018-06-16T17:30:24.709Z,27.00
2018-06-16T17:35:19.095Z,27.00
2018-06-16T17:40:13.549Z,27.10
2018-06-16T17:45:08.041Z,27.00
2018-06-16T17:50:02.529Z,26.90
2018-06-16T17:54:56.978Z,26.70
2018-06-16T17:59:51.427Z,26.70
2018-06-16T18:04:45.862Z,26.60
2018-06-16T18:09:40.274Z,26.50
2018-06-16T18:14:34.794Z,26.50
2018-06-16T18:19:29.227Z,26.30
2018-06-16T18:24:23.664Z,26.10
2018-06-16T18:29:18.081Z,25.80
2018-06-16T18:34:12.528Z,25.50
2018-06-16T18:39:10.180Z,25.30
2018-06-16T18:44:04.874Z,25.10
2018-06-16T18:48:59.360Z,24.90
2018-06-16T18:53:53.985Z,24.60
2018-06-16T18:58:48.497Z,24.40
2018-06-16T19:03:43.752Z,24.40
2018-06-16T19:08:38.214Z,24.20
2018-06-16T19:13:32.671Z,23.90
2018-06-16T19:18:27.096Z,23.90
2018-06-16T19:23:21.534Z,23.70
2018-06-16T19:28:16.043Z,23.30
2018-06-16T19:33:10.534Z,23.00
2018-06-16T19:38:05.056Z,22.90
2018-06-16T19:42:59.504Z,22.70
2018-06-16T19:47:53.979Z,22.70
2018-06-16T19:52:48.467Z,22.70
2018-06-16T19:57:42.940Z,22.70
2018-06-16T20:02:37.453Z,22.60
2018-06-16T20:07:31.957Z,22.40
2018-06-16T20:12:26.601Z,22.30
2018-06-16T20:17:21.080Z,22.10
2018-06-16T20:22:15.526Z,22.00
2018-06-16T20:27:09.960Z,21.90
2018-06-16T20:32:04.485Z,21.90
2018-06-16T20:36:58.929Z,21.90
2018-06-16T20:41:53.553Z,21.80
2018-06-16T20:46:48.078Z,21.70
2018-06-16T20:51:42.505Z,21.60
2018-06-16T20:56:36.987Z,21.60
2018-06-16T21:01:31.469Z,21.60
2018-06-16T21:06:26.013Z,21.60
2018-06-16T21:11:20.459Z,21.60
2018-06-16T21:16:14.896Z,21.60
2018-06-16T21:21:09.368Z,21.60
2018-06-16T21:26:03.816Z,21.60
2018-06-16T21:30:58.967Z,21.50
2018-06-16T21:35:53.445Z,21.40
2018-06-16T21:45:42.209Z,21.20
2018-06-16T21:50:36.645Z,21.20
2018-06-16T21:55:31.080Z,21.10
2018-06-16T22:00:29.582Z,21.00
2018-06-16T22:05:24.000Z,20.90
2018-06-16T22:10:18.559Z,20.80
2018-06-16T22:15:13.094Z,20.50
2018-06-16T22:20:07.584Z,20.40
2018-06-16T22:25:01.993Z,20.30
2018-06-16T22:29:56.472Z,20.20
2018-06-16T22:34:51.273Z,20.00
2018-06-16T22:39:45.729Z,19.80
2018-06-16T22:44:40.210Z,19.80
2018-06-16T22:49:34.613Z,19.80
2018-06-16T22:54:29.050Z,19.60
2018-06-16T22:59:23.521Z,19.40
2018-06-16T23:04:17.961Z,19.40
2018-06-16T23:09:12.989Z,19.40
2018-06-16T23:14:07.595Z,19.40
2018-06-16T23:19:02.005Z,19.30
2018-06-16T23:24:02.065Z,19.20
2018-06-16T23:28:56.486Z,19.10
2018-06-16T23:33:50.940Z,19.00
2018-06-16T23:38:45.361Z,18.90
2018-06-16T23:43:39.820Z,18.80
2018-06-16T23:48:34.301Z,18.60
2018-06-16T23:53:28.761Z,18.50
2018-06-16T23:58:23.197Z,18.50
